KTCS/TCS METAR and TAF weather

Enter ICAO airport designator
Station Type Date Time Source
KTCS METAR 2019/08/22 03:53 UTC NOAA

KTCS 220353Z AUTO 31005KT 10SM CLR 23/14 A3011 RMK AO2 SLP106 T02280139 $


Station Type Date Time Source
KTCS Decoded METAR 2019/08/22 03:53 UTC NOAA

Station name not available
Aug 21, 2019 - 11:53 PM EDT / 2019.08.22 0353 UTC
Wind: from the NW (310 degrees) at 6 MPH (5 KT):0
Visibility: 10 mile(s):0
Sky conditions: clear
Temperature: 73.0 F (22.8 C)
Dew Point: 57.0 F (13.9 C)
Relative Humidity: 57%
Pressure (altimeter): 30.11 in. Hg (1019 hPa)
ob: KTCS 220353Z AUTO 31005KT 10SM CLR 23/14 A3011 RMK AO2 SLP106 T02280139
cycle: 4

Station Type Date Time Source
KTCS TAF 2019/08/21 18:22 UTC NOAA

TAF KTCS 211720Z 2118/2218 17010KT P6SM FEW080 SCT250
FM212100 19010KT P6SM VCTS SCT060CB BKN120
TEMPO 2122/2202 VRB25G40KT 2SM TSRA BKN030CB
FM220200 31008KT P6SM SCT100 BKN200
FM221200 VRB04KT P6SM FEW120

Example: see airport list